sensor_id;sensor_type;location;lat;lon;timestamp;temperature;humidity
21023;DHT22;10669;51.076;3.714;2022-07-03T00:00:28;18.50;99.90
21023;DHT22;10669;51.076;3.714;2022-07-03T00:02:54;18.60;99.90
21023;DHT22;10669;51.076;3.714;2022-07-03T00:05:20;18.60;99.90
21023;DHT22;10669;51.076;3.714;2022-07-03T00:07:46;18.50;99.90
21023;DHT22;10669;51.076;3.714;2022-07-03T00:10:11;18.40;99.90
21023;DHT22;10669;51.076;3.714;2022-07-03T00:12:37;18.40;99.90
21023;DHT22;10669;51.076;3.714;2022-07-03T00:15:03;18.30;99.90
21023;DHT22;10669;51.076;3.714;2022-07-03T00:17:29;18.10;99.90
21023;DHT22;10669;51.076;3.714;2022-07-03T00:19:55;18.00;99.90
21023;DHT22;10669;51.076;3.714;2022-07-03T00:22:24;17.90;99.90
21023;DHT22;10669;51.076;3.714;2022-07-03T00:24:57;18.00;99.90
21023;DHT22;10669;51.076;3.714;2022-07-03T00:27:25;18.00;99.90
21023;DHT22;10669;51.076;3.714;2022-07-03T00:29:55;17.90;99.90
21023;DHT22;10669;51.076;3.714;2022-07-03T00:32:25;17.90;99.90
21023;DHT22;10669;51.076;3.714;2022-07-03T00:34:52;18.00;99.90
21023;DHT22;10669;51.076;3.714;2022-07-03T00:37:20;18.10;99.90
21023;DHT22;10669;51.076;3.714;2022-07-03T00:39:46;18.00;99.90
21023;DHT22;10669;51.076;3.714;2022-07-03T00:42:15;18.10;99.90
21023;DHT22;10669;51.076;3.714;2022-07-03T00:44:49;18.10;99.90
21023;DHT22;10669;51.076;3.714;2022-07-03T00:47:16;18.10;99.90
21023;DHT22;10669;51.076;3.714;2022-07-03T00:49:48;18.10;99.90
21023;DHT22;10669;51.076;3.714;2022-07-03T00:52:15;18.00;99.90
21023;DHT22;10669;51.076;3.714;2022-07-03T00:54:44;18.20;99.90
21023;DHT22;10669;51.076;3.714;2022-07-03T00:57:15;18.10;99.90
21023;DHT22;10669;51.076;3.714;2022-07-03T00:59:42;18.10;99.90
21023;DHT22;10669;51.076;3.714;2022-07-03T01:02:08;17.90;99.90
21023;DHT22;10669;51.076;3.714;2022-07-03T01:07:50;17.80;99.90
21023;DHT22;10669;51.076;3.714;2022-07-03T01:13:00;17.80;99.90
21023;DHT22;10669;51.076;3.714;2022-07-03T01:21:10;17.70;99.90
21023;DHT22;10669;51.076;3.714;2022-07-03T01:26:36;17.60;99.90
21023;DHT22;10669;51.076;3.714;2022-07-03T01:29:07;17.60;99.90
21023;DHT22;10669;51.076;3.714;2022-07-03T01:31:33;17.60;99.90
21023;DHT22;10669;51.076;3.714;2022-07-03T01:34:01;17.70;99.90
21023;DHT22;10669;51.076;3.714;2022-07-03T01:36:30;17.80;99.90
21023;DHT22;10669;51.076;3.714;2022-07-03T01:38:57;17.80;99.90
21023;DHT22;10669;51.076;3.714;2022-07-03T01:41:29;17.70;99.90
21023;DHT22;10669;51.076;3.714;2022-07-03T01:44:00;17.60;99.90
21023;DHT22;10669;51.076;3.714;2022-07-03T01:46:29;17.60;99.90
21023;DHT22;10669;51.076;3.714;2022-07-03T01:48:57;17.50;99.90
21023;DHT22;10669;51.076;3.714;2022-07-03T01:51:25;17.40;99.90
21023;DHT22;10669;51.076;3.714;2022-07-03T01:53:52;17.30;99.90
21023;DHT22;10669;51.076;3.714;2022-07-03T01:56:19;17.30;99.90
21023;DHT22;10669;51.076;3.714;2022-07-03T01:58:46;17.30;99.90
21023;DHT22;10669;51.076;3.714;2022-07-03T02:01:47;17.30;99.90
21023;DHT22;10669;51.076;3.714;2022-07-03T02:07:02;17.50;99.90
21023;DHT22;10669;51.076;3.714;2022-07-03T02:09:52;17.40;99.90
21023;DHT22;10669;51.076;3.714;2022-07-03T02:12:27;17.40;99.90
21023;DHT22;10669;51.076;3.714;2022-07-03T02:15:07;17.40;99.90
21023;DHT22;10669;51.076;3.714;2022-07-03T02:17:54;17.20;99.90
21023;DHT22;10669;51.076;3.714;2022-07-03T02:20:20;17.20;99.90
21023;DHT22;10669;51.076;3.714;2022-07-03T02:22:55;17.30;99.90
21023;DHT22;10669;51.076;3.714;2022-07-03T02:25:23;17.30;99.90
21023;DHT22;10669;51.076;3.714;2022-07-03T02:28:03;17.30;99.90
21023;DHT22;10669;51.076;3.714;2022-07-03T02:30:30;17.40;99.90
21023;DHT22;10669;51.076;3.714;2022-07-03T02:32:59;17.30;99.90
21023;DHT22;10669;51.076;3.714;2022-07-03T02:35:29;17.30;99.90
21023;DHT22;10669;51.076;3.714;2022-07-03T02:38:16;17.20;99.90
21023;DHT22;10669;51.076;3.714;2022-07-03T02:43:23;17.20;99.90
21023;DHT22;10669;51.076;3.714;2022-07-03T02:46:03;17.00;99.90
21023;DHT22;10669;51.076;3.714;2022-07-03T02:48:51;17.10;99.90
21023;DHT22;10669;51.076;3.714;2022-07-03T02:51:22;17.00;99.90
21023;DHT22;10669;51.076;3.714;2022-07-03T02:53:56;17.00;99.90
21023;DHT22;10669;51.076;3.714;2022-07-03T03:01:48;17.10;99.90
21023;DHT22;10669;51.076;3.714;2022-07-03T03:04:30;17.10;99.90
21023;DHT22;10669;51.076;3.714;2022-07-03T03:07:02;17.00;99.90
21023;DHT22;10669;51.076;3.714;2022-07-03T03:09:40;17.00;99.90
21023;DHT22;10669;51.076;3.714;2022-07-03T03:12:08;17.00;99.90
21023;DHT22;10669;51.076;3.714;2022-07-03T03:14:42;17.10;99.90
21023;DHT22;10669;51.076;3.714;2022-07-03T03:17:13;17.20;99.90
21023;DHT22;10669;51.076;3.714;2022-07-03T03:19:46;17.20;99.90
21023;DHT22;10669;51.076;3.714;2022-07-03T03:25:06;17.10;99.90
21023;DHT22;10669;51.076;3.714;2022-07-03T03:27:31;17.00;99.90
21023;DHT22;10669;51.076;3.714;2022-07-03T03:29:57;16.80;99.90
21023;DHT22;10669;51.076;3.714;2022-07-03T03:32:24;16.70;99.90
21023;DHT22;10669;51.076;3.714;2022-07-03T03:34:51;16.60;99.90
21023;DHT22;10669;51.076;3.714;2022-07-03T03:37:17;16.60;99.90
21023;DHT22;10669;51.076;3.714;2022-07-03T03:39:43;16.70;99.90
21023;DHT22;10669;51.076;3.714;2022-07-03T03:42:09;16.80;99.90
21023;DHT22;10669;51.076;3.714;2022-07-03T03:44:34;16.80;99.90
21023;DHT22;10669;51.076;3.714;2022-07-03T03:47:00;16.60;99.90
21023;DHT22;10669;51.076;3.714;2022-07-03T03:49:27;16.70;99.90
21023;DHT22;10669;51.076;3.714;2022-07-03T03:51:54;16.90;99.90
21023;DHT22;10669;51.076;3.714;2022-07-03T03:54:20;16.90;99.90
21023;DHT22;10669;51.076;3.714;2022-07-03T03:56:46;16.80;99.90
21023;DHT22;10669;51.076;3.714;2022-07-03T03:59:12;16.70;99.90
21023;DHT22;10669;51.076;3.714;2022-07-03T04:01:38;16.70;99.90
21023;DHT22;10669;51.076;3.714;2022-07-03T04:04:03;16.70;99.90
21023;DHT22;10669;51.076;3.714;2022-07-03T04:06:29;16.70;99.90
21023;DHT22;10669;51.076;3.714;2022-07-03T04:08:54;16.60;99.90
21023;DHT22;10669;51.076;3.714;2022-07-03T04:11:20;16.60;99.90
21023;DHT22;10669;51.076;3.714;2022-07-03T04:13:46;16.50;99.90
21023;DHT22;10669;51.076;3.714;2022-07-03T04:16:12;16.50;99.90
21023;DHT22;10669;51.076;3.714;2022-07-03T04:18:38;16.40;99.90
21023;DHT22;10669;51.076;3.714;2022-07-03T04:21:04;16.30;99.90
21023;DHT22;10669;51.076;3.714;2022-07-03T04:23:30;16.30;99.90
21023;DHT22;10669;51.076;3.714;2022-07-03T04:26:02;16.20;99.90
21023;DHT22;10669;51.076;3.714;2022-07-03T04:28:28;16.20;99.90
21023;DHT22;10669;51.076;3.714;2022-07-03T04:30:54;16.10;99.90
21023;DHT22;10669;51.076;3.714;2022-07-03T04:33:20;16.20;99.90
21023;DHT22;10669;51.076;3.714;2022-07-03T04:35:46;16.20;99.90
21023;DHT22;10669;51.076;3.714;2022-07-03T04:38:12;16.40;99.90
21023;DHT22;10669;51.076;3.714;2022-07-03T04:40:37;16.40;99.90
21023;DHT22;10669;51.076;3.714;2022-07-03T04:43:03;16.50;99.90
21023;DHT22;10669;51.076;3.714;2022-07-03T04:45:29;16.40;99.90
21023;DHT22;10669;51.076;3.714;2022-07-03T04:47:54;16.40;99.90
21023;DHT22;10669;51.076;3.714;2022-07-03T04:50:20;16.50;99.90
21023;DHT22;10669;51.076;3.714;2022-07-03T04:52:46;16.60;99.90
21023;DHT22;10669;51.076;3.714;2022-07-03T04:55:12;16.70;99.90
21023;DHT22;10669;51.076;3.714;2022-07-03T04:57:38;16.60;99.90
21023;DHT22;10669;51.076;3.714;2022-07-03T05:00:04;16.60;99.90
21023;DHT22;10669;51.076;3.714;2022-07-03T05:02:30;16.70;99.90
21023;DHT22;10669;51.076;3.714;2022-07-03T05:04:56;16.80;99.90
21023;DHT22;10669;51.076;3.714;2022-07-03T05:07:21;16.90;99.90
21023;DHT22;10669;51.076;3.714;2022-07-03T05:09:47;16.80;99.90
21023;DHT22;10669;51.076;3.714;2022-07-03T05:12:13;16.80;99.90
21023;DHT22;10669;51.076;3.714;2022-07-03T05:14:38;16.80;99.90
21023;DHT22;10669;51.076;3.714;2022-07-03T05:17:04;16.60;99.90
21023;DHT22;10669;51.076;3.714;2022-07-03T05:19:30;16.60;99.90
21023;DHT22;10669;51.076;3.714;2022-07-03T05:21:55;16.60;99.90
21023;DHT22;10669;51.076;3.714;2022-07-03T05:24:21;16.50;99.90
21023;DHT22;10669;51.076;3.714;2022-07-03T05:26:47;16.60;99.90
21023;DHT22;10669;51.076;3.714;2022-07-03T05:29:12;16.60;99.90
21023;DHT22;10669;51.076;3.714;2022-07-03T05:31:38;16.60;99.90
21023;DHT22;10669;51.076;3.714;2022-07-03T05:34:04;16.80;99.90
21023;DHT22;10669;51.076;3.714;2022-07-03T05:36:29;16.80;99.90
21023;DHT22;10669;51.076;3.714;2022-07-03T05:38:55;16.90;99.90
21023;DHT22;10669;51.076;3.714;2022-07-03T05:41:39;16.90;99.90
21023;DHT22;10669;51.076;3.714;2022-07-03T05:44:05;17.00;99.90
21023;DHT22;10669;51.076;3.714;2022-07-03T05:46:31;17.20;99.90
21023;DHT22;10669;51.076;3.714;2022-07-03T05:48:58;17.30;99.90
21023;DHT22;10669;51.076;3.714;2022-07-03T05:51:23;17.30;99.90
21023;DHT22;10669;51.076;3.714;2022-07-03T05:53:49;17.20;99.90
21023;DHT22;10669;51.076;3.714;2022-07-03T05:56:15;17.20;99.90
21023;DHT22;10669;51.076;3.714;2022-07-03T05:58:40;17.10;99.90
21023;DHT22;10669;51.076;3.714;2022-07-03T06:01:07;17.20;99.90
21023;DHT22;10669;51.076;3.714;2022-07-03T06:03:33;17.20;99.90
21023;DHT22;10669;51.076;3.714;2022-07-03T06:05:59;17.20;99.90
21023;DHT22;10669;51.076;3.714;2022-07-03T06:08:25;17.40;99.90
21023;DHT22;10669;51.076;3.714;2022-07-03T06:10:51;17.40;99.90
21023;DHT22;10669;51.076;3.714;2022-07-03T06:13:16;17.50;99.90
21023;DHT22;10669;51.076;3.714;2022-07-03T06:15:42;17.60;99.90
21023;DHT22;10669;51.076;3.714;2022-07-03T06:18:08;17.80;99.90
21023;DHT22;10669;51.076;3.714;2022-07-03T06:20:34;17.90;99.90
21023;DHT22;10669;51.076;3.714;2022-07-03T06:23:00;18.00;99.90
21023;DHT22;10669;51.076;3.714;2022-07-03T06:25:27;17.90;99.90
21023;DHT22;10669;51.076;3.714;2022-07-03T06:27:53;17.90;99.90
21023;DHT22;10669;51.076;3.714;2022-07-03T06:30:19;17.80;99.90
21023;DHT22;10669;51.076;3.714;2022-07-03T06:32:45;17.80;99.90
21023;DHT22;10669;51.076;3.714;2022-07-03T06:35:11;17.90;99.90
21023;DHT22;10669;51.076;3.714;2022-07-03T06:37:37;18.00;99.90
21023;DHT22;10669;51.076;3.714;2022-07-03T06:40:03;18.30;99.90
21023;DHT22;10669;51.076;3.714;2022-07-03T06:42:28;18.40;99.90
21023;DHT22;10669;51.076;3.714;2022-07-03T06:44:54;18.40;99.90
21023;DHT22;10669;51.076;3.714;2022-07-03T06:47:20;18.40;99.90
21023;DHT22;10669;51.076;3.714;2022-07-03T06:49:45;18.60;99.90
21023;DHT22;10669;51.076;3.714;2022-07-03T06:52:11;18.70;99.90
21023;DHT22;10669;51.076;3.714;2022-07-03T06:54:37;18.70;99.90
21023;DHT22;10669;51.076;3.714;2022-07-03T06:57:12;18.60;99.90
21023;DHT22;10669;51.076;3.714;2022-07-03T06:59:38;18.40;99.90
21023;DHT22;10669;51.076;3.714;2022-07-03T07:02:06;18.40;99.90
21023;DHT22;10669;51.076;3.714;2022-07-03T07:04:33;18.30;99.90
21023;DHT22;10669;51.076;3.714;2022-07-03T07:06:59;17.90;99.90
21023;DHT22;10669;51.076;3.714;2022-07-03T07:09:25;17.90;99.90
21023;DHT22;10669;51.076;3.714;2022-07-03T07:11:51;17.90;99.90
21023;DHT22;10669;51.076;3.714;2022-07-03T07:14:17;18.00;99.90
21023;DHT22;10669;51.076;3.714;2022-07-03T07:16:43;18.10;99.90
21023;DHT22;10669;51.076;3.714;2022-07-03T07:19:08;18.30;99.90
21023;DHT22;10669;51.076;3.714;2022-07-03T07:21:34;18.60;99.90
21023;DHT22;10669;51.076;3.714;2022-07-03T07:24:00;18.50;99.90
21023;DHT22;10669;51.076;3.714;2022-07-03T07:26:25;18.30;99.90
21023;DHT22;10669;51.076;3.714;2022-07-03T07:28:51;18.40;99.90
21023;DHT22;10669;51.076;3.714;2022-07-03T07:31:17;18.40;99.90
21023;DHT22;10669;51.076;3.714;2022-07-03T07:33:43;18.40;99.90
21023;DHT22;10669;51.076;3.714;2022-07-03T07:36:08;18.40;99.90
21023;DHT22;10669;51.076;3.714;2022-07-03T07:38:34;18.60;99.90
21023;DHT22;10669;51.076;3.714;2022-07-03T07:41:00;18.70;99.90
21023;DHT22;10669;51.076;3.714;2022-07-03T07:43:25;18.80;99.90
21023;DHT22;10669;51.076;3.714;2022-07-03T07:45:51;18.90;99.90
21023;DHT22;10669;51.076;3.714;2022-07-03T07:48:18;19.00;99.90
21023;DHT22;10669;51.076;3.714;2022-07-03T07:50:44;19.00;99.90
21023;DHT22;10669;51.076;3.714;2022-07-03T07:53:10;19.10;99.90
21023;DHT22;10669;51.076;3.714;2022-07-03T07:55:35;19.10;99.90
21023;DHT22;10669;51.076;3.714;2022-07-03T07:58:01;19.10;99.90
21023;DHT22;10669;51.076;3.714;2022-07-03T08:00:27;19.10;99.90
21023;DHT22;10669;51.076;3.714;2022-07-03T08:02:52;19.20;99.90
21023;DHT22;10669;51.076;3.714;2022-07-03T08:05:37;19.30;99.90
21023;DHT22;10669;51.076;3.714;2022-07-03T08:08:16;19.60;99.90
21023;DHT22;10669;51.076;3.714;2022-07-03T08:10:43;19.40;99.90
21023;DHT22;10669;51.076;3.714;2022-07-03T08:13:09;19.60;99.90
21023;DHT22;10669;51.076;3.714;2022-07-03T08:15:35;19.90;99.90
21023;DHT22;10669;51.076;3.714;2022-07-03T08:18:02;20.00;99.90
21023;DHT22;10669;51.076;3.714;2022-07-03T08:20:29;20.00;99.90
21023;DHT22;10669;51.076;3.714;2022-07-03T08:22:54;20.10;99.90
21023;DHT22;10669;51.076;3.714;2022-07-03T08:25:21;20.00;99.90
21023;DHT22;10669;51.076;3.714;2022-07-03T08:27:47;20.30;99.90
21023;DHT22;10669;51.076;3.714;2022-07-03T08:30:13;20.40;99.90
21023;DHT22;10669;51.076;3.714;2022-07-03T08:32:41;20.10;99.90
21023;DHT22;10669;51.076;3.714;2022-07-03T08:35:07;20.00;99.90
21023;DHT22;10669;51.076;3.714;2022-07-03T08:37:33;19.90;99.90
21023;DHT22;10669;51.076;3.714;2022-07-03T08:40:00;20.10;99.90
21023;DHT22;10669;51.076;3.714;2022-07-03T08:42:27;20.20;99.90
21023;DHT22;10669;51.076;3.714;2022-07-03T08:44:54;20.30;99.90
21023;DHT22;10669;51.076;3.714;2022-07-03T08:47:21;20.40;99.90
21023;DHT22;10669;51.076;3.714;2022-07-03T08:49:48;20.30;99.90
21023;DHT22;10669;51.076;3.714;2022-07-03T08:52:14;20.40;99.90
21023;DHT22;10669;51.076;3.714;2022-07-03T08:54:40;20.20;99.90
21023;DHT22;10669;51.076;3.714;2022-07-03T08:57:09;20.30;99.90
21023;DHT22;10669;51.076;3.714;2022-07-03T08:59:38;20.40;99.90
21023;DHT22;10669;51.076;3.714;2022-07-03T09:02:05;20.80;99.90
21023;DHT22;10669;51.076;3.714;2022-07-03T09:04:34;21.10;99.90
21023;DHT22;10669;51.076;3.714;2022-07-03T09:07:01;21.30;99.90
21023;DHT22;10669;51.076;3.714;2022-07-03T09:09:27;21.50;99.90
21023;DHT22;10669;51.076;3.714;2022-07-03T09:11:53;21.70;99.90
21023;DHT22;10669;51.076;3.714;2022-07-03T09:14:19;21.80;99.90
21023;DHT22;10669;51.076;3.714;2022-07-03T09:16:45;22.10;99.90
21023;DHT22;10669;51.076;3.714;2022-07-03T09:19:11;21.90;99.90
21023;DHT22;10669;51.076;3.714;2022-07-03T09:21:40;21.30;99.90
21023;DHT22;10669;51.076;3.714;2022-07-03T09:24:08;20.90;99.90
21023;DHT22;10669;51.076;3.714;2022-07-03T09:26:35;20.50;99.90
21023;DHT22;10669;51.076;3.714;2022-07-03T09:29:03;20.50;99.90
21023;DHT22;10669;51.076;3.714;2022-07-03T09:31:30;20.40;99.90
21023;DHT22;10669;51.076;3.714;2022-07-03T09:36:48;20.90;99.90
21023;DHT22;10669;51.076;3.714;2022-07-03T09:39:44;20.80;99.90
21023;DHT22;10669;51.076;3.714;2022-07-03T09:42:20;20.60;99.90
21023;DHT22;10669;51.076;3.714;2022-07-03T09:44:45;20.80;99.90
21023;DHT22;10669;51.076;3.714;2022-07-03T09:47:17;21.20;99.90
21023;DHT22;10669;51.076;3.714;2022-07-03T09:57:38;20.50;99.90
21023;DHT22;10669;51.076;3.714;2022-07-03T10:00:18;20.40;99.90
21023;DHT22;10669;51.076;3.714;2022-07-03T10:03:00;20.80;99.90
21023;DHT22;10669;51.076;3.714;2022-07-03T10:08:09;21.60;99.90
21023;DHT22;10669;51.076;3.714;2022-07-03T10:10:46;21.80;99.90
21023;DHT22;10669;51.076;3.714;2022-07-03T10:13:12;21.70;99.90
21023;DHT22;10669;51.076;3.714;2022-07-03T10:15:40;21.60;99.90
21023;DHT22;10669;51.076;3.714;2022-07-03T10:18:08;21.70;99.90
21023;DHT22;10669;51.076;3.714;2022-07-03T10:20:38;21.90;99.90
21023;DHT22;10669;51.076;3.714;2022-07-03T10:23:04;22.10;99.90
21023;DHT22;10669;51.076;3.714;2022-07-03T10:25:31;21.90;99.90
21023;DHT22;10669;51.076;3.714;2022-07-03T10:27:57;22.10;99.90
21023;DHT22;10669;51.076;3.714;2022-07-03T10:30:23;21.80;99.90
21023;DHT22;10669;51.076;3.714;2022-07-03T10:32:52;21.90;99.90
21023;DHT22;10669;51.076;3.714;2022-07-03T10:35:26;21.80;99.90
21023;DHT22;10669;51.076;3.714;2022-07-03T10:37:56;21.70;99.90
21023;DHT22;10669;51.076;3.714;2022-07-03T10:43:34;21.80;99.90
21023;DHT22;10669;51.076;3.714;2022-07-03T10:46:24;21.90;99.90
21023;DHT22;10669;51.076;3.714;2022-07-03T10:48:58;21.90;99.90
21023;DHT22;10669;51.076;3.714;2022-07-03T10:51:25;21.80;99.90
21023;DHT22;10669;51.076;3.714;2022-07-03T11:02:32;22.30;99.90
21023;DHT22;10669;51.076;3.714;2022-07-03T11:07:31;22.30;99.90
21023;DHT22;10669;51.076;3.714;2022-07-03T11:18:19;22.40;99.90
21023;DHT22;10669;51.076;3.714;2022-07-03T11:20:55;22.10;99.90
21023;DHT22;10669;51.076;3.714;2022-07-03T11:23:30;22.00;99.90
21023;DHT22;10669;51.076;3.714;2022-07-03T11:26:20;22.10;99.80
21023;DHT22;10669;51.076;3.714;2022-07-03T11:41:16;23.00;98.50
21023;DHT22;10669;51.076;3.714;2022-07-03T11:43:49;23.00;98.60
21023;DHT22;10669;51.076;3.714;2022-07-03T11:46:24;22.90;97.90
21023;DHT22;10669;51.076;3.714;2022-07-03T11:48:50;22.50;98.60
21023;DHT22;10669;51.076;3.714;2022-07-03T11:51:29;22.30;98.80
21023;DHT22;10669;51.076;3.714;2022-07-03T11:53:54;22.50;99.00
21023;DHT22;10669;51.076;3.714;2022-07-03T11:56:21;22.70;98.80
21023;DHT22;10669;51.076;3.714;2022-07-03T11:58:54;22.60;99.20
21023;DHT22;10669;51.076;3.714;2022-07-03T12:01:27;22.70;99.30
21023;DHT22;10669;51.076;3.714;2022-07-03T12:04:07;22.70;99.10
21023;DHT22;10669;51.076;3.714;2022-07-03T12:06:34;22.80;99.70
21023;DHT22;10669;51.076;3.714;2022-07-03T12:09:02;22.40;99.70
21023;DHT22;10669;51.076;3.714;2022-07-03T12:11:28;22.30;99.70
21023;DHT22;10669;51.076;3.714;2022-07-03T12:13:55;22.40;99.90
21023;DHT22;10669;51.076;3.714;2022-07-03T12:16:32;22.70;99.90
21023;DHT22;10669;51.076;3.714;2022-07-03T12:19:03;22.70;99.70
21023;DHT22;10669;51.076;3.714;2022-07-03T12:21:38;22.60;99.60
21023;DHT22;10669;51.076;3.714;2022-07-03T12:24:12;22.60;99.10
21023;DHT22;10669;51.076;3.714;2022-07-03T12:26:38;22.50;99.30
21023;DHT22;10669;51.076;3.714;2022-07-03T12:29:07;22.60;99.30
21023;DHT22;10669;51.076;3.714;2022-07-03T12:31:33;22.90;98.00
21023;DHT22;10669;51.076;3.714;2022-07-03T12:34:01;23.20;97.90
21023;DHT22;10669;51.076;3.714;2022-07-03T12:36:28;23.30;96.90
21023;DHT22;10669;51.076;3.714;2022-07-03T12:38:56;23.40;96.40
21023;DHT22;10669;51.076;3.714;2022-07-03T12:41:23;23.20;96.00
21023;DHT22;10669;51.076;3.714;2022-07-03T12:43:50;23.40;96.50
21023;DHT22;10669;51.076;3.714;2022-07-03T12:46:25;23.10;96.80
21023;DHT22;10669;51.076;3.714;2022-07-03T12:48:56;23.30;97.10
21023;DHT22;10669;51.076;3.714;2022-07-03T12:51:45;23.60;96.40
21023;DHT22;10669;51.076;3.714;2022-07-03T12:57:08;23.00;97.50
21023;DHT22;10669;51.076;3.714;2022-07-03T13:00:06;23.40;96.70
21023;DHT22;10669;51.076;3.714;2022-07-03T13:02:33;23.20;95.40
21023;DHT22;10669;51.076;3.714;2022-07-03T13:05:13;23.00;96.30
21023;DHT22;10669;51.076;3.714;2022-07-03T13:07:41;23.20;96.40
21023;DHT22;10669;51.076;3.714;2022-07-03T13:10:08;23.30;96.40
21023;DHT22;10669;51.076;3.714;2022-07-03T13:12:34;23.10;96.30
21023;DHT22;10669;51.076;3.714;2022-07-03T13:15:01;23.00;96.40
21023;DHT22;10669;51.076;3.714;2022-07-03T13:20:15;23.20;97.10
21023;DHT22;10669;51.076;3.714;2022-07-03T13:22:40;23.60;96.70
21023;DHT22;10669;51.076;3.714;2022-07-03T13:25:06;23.90;96.10
21023;DHT22;10669;51.076;3.714;2022-07-03T13:27:32;23.90;95.90
21023;DHT22;10669;51.076;3.714;2022-07-03T13:29:57;24.20;95.80
21023;DHT22;10669;51.076;3.714;2022-07-03T13:32:23;24.50;95.10
21023;DHT22;10669;51.076;3.714;2022-07-03T13:34:49;24.30;95.10
21023;DHT22;10669;51.076;3.714;2022-07-03T13:37:14;23.80;96.00
21023;DHT22;10669;51.076;3.714;2022-07-03T13:39:40;23.90;96.70
21023;DHT22;10669;51.076;3.714;2022-07-03T13:42:05;24.00;96.20
21023;DHT22;10669;51.076;3.714;2022-07-03T13:44:36;23.70;96.80
21023;DHT22;10669;51.076;3.714;2022-07-03T13:47:02;23.30;97.20
21023;DHT22;10669;51.076;3.714;2022-07-03T13:49:28;23.40;97.40
21023;DHT22;10669;51.076;3.714;2022-07-03T13:51:53;23.60;97.70
21023;DHT22;10669;51.076;3.714;2022-07-03T13:54:19;23.90;97.70
21023;DHT22;10669;51.076;3.714;2022-07-03T13:56:45;23.50;96.70
21023;DHT22;10669;51.076;3.714;2022-07-03T13:59:11;23.50;97.50
21023;DHT22;10669;51.076;3.714;2022-07-03T14:01:37;23.10;98.10
21023;DHT22;10669;51.076;3.714;2022-07-03T14:04:03;23.20;98.20
21023;DHT22;10669;51.076;3.714;2022-07-03T14:06:29;23.40;98.00
21023;DHT22;10669;51.076;3.714;2022-07-03T14:08:56;23.40;97.90
21023;DHT22;10669;51.076;3.714;2022-07-03T14:11:21;22.80;97.80
21023;DHT22;10669;51.076;3.714;2022-07-03T14:13:47;22.60;98.80
21023;DHT22;10669;51.076;3.714;2022-07-03T14:16:13;23.00;98.00
21023;DHT22;10669;51.076;3.714;2022-07-03T14:18:38;23.20;98.20
21023;DHT22;10669;51.076;3.714;2022-07-03T14:21:04;23.40;98.00
21023;DHT22;10669;51.076;3.714;2022-07-03T14:23:33;23.60;97.80
21023;DHT22;10669;51.076;3.714;2022-07-03T14:25:59;23.40;97.60
21023;DHT22;10669;51.076;3.714;2022-07-03T14:28:25;23.40;97.20
21023;DHT22;10669;51.076;3.714;2022-07-03T14:31:10;23.20;97.20
21023;DHT22;10669;51.076;3.714;2022-07-03T14:33:46;23.20;96.90
21023;DHT22;10669;51.076;3.714;2022-07-03T14:36:12;23.20;97.30
21023;DHT22;10669;51.076;3.714;2022-07-03T14:38:38;23.60;95.50
21023;DHT22;10669;51.076;3.714;2022-07-03T14:41:04;23.50;94.70
21023;DHT22;10669;51.076;3.714;2022-07-03T14:43:30;23.50;95.10
21023;DHT22;10669;51.076;3.714;2022-07-03T14:45:55;23.70;95.30
21023;DHT22;10669;51.076;3.714;2022-07-03T14:48:21;24.20;95.10
21023;DHT22;10669;51.076;3.714;2022-07-03T14:50:47;24.40;94.60
21023;DHT22;10669;51.076;3.714;2022-07-03T14:53:12;24.40;94.70
21023;DHT22;10669;51.076;3.714;2022-07-03T14:55:42;24.10;95.60
21023;DHT22;10669;51.076;3.714;2022-07-03T15:00:50;23.90;96.10
21023;DHT22;10669;51.076;3.714;2022-07-03T15:03:28;23.20;97.00
21023;DHT22;10669;51.076;3.714;2022-07-03T15:05:56;23.50;96.70
21023;DHT22;10669;51.076;3.714;2022-07-03T15:11:07;23.70;96.80
21023;DHT22;10669;51.076;3.714;2022-07-03T15:13:34;23.80;96.90
21023;DHT22;10669;51.076;3.714;2022-07-03T15:16:01;24.00;96.90
21023;DHT22;10669;51.076;3.714;2022-07-03T15:18:28;24.50;95.50
21023;DHT22;10669;51.076;3.714;2022-07-03T15:20:54;24.60;95.40
21023;DHT22;10669;51.076;3.714;2022-07-03T15:23:23;24.20;95.40
21023;DHT22;10669;51.076;3.714;2022-07-03T15:25:49;24.10;95.90
21023;DHT22;10669;51.076;3.714;2022-07-03T15:28:16;24.00;95.80
21023;DHT22;10669;51.076;3.714;2022-07-03T15:30:49;23.50;96.10
21023;DHT22;10669;51.076;3.714;2022-07-03T15:33:17;23.40;96.40
21023;DHT22;10669;51.076;3.714;2022-07-03T15:35:48;23.60;97.30
21023;DHT22;10669;51.076;3.714;2022-07-03T15:38:26;23.50;96.40
21023;DHT22;10669;51.076;3.714;2022-07-03T15:40:57;23.30;97.10
21023;DHT22;10669;51.076;3.714;2022-07-03T15:46:23;23.50;97.60
21023;DHT22;10669;51.076;3.714;2022-07-03T15:49:30;23.80;96.80
21023;DHT22;10669;51.076;3.714;2022-07-03T15:52:10;24.00;96.10
21023;DHT22;10669;51.076;3.714;2022-07-03T15:59:47;23.00;97.50
21023;DHT22;10669;51.076;3.714;2022-07-03T16:02:21;22.80;97.40
21023;DHT22;10669;51.076;3.714;2022-07-03T16:05:33;23.00;97.50
21023;DHT22;10669;51.076;3.714;2022-07-03T16:08:02;22.60;98.50
21023;DHT22;10669;51.076;3.714;2022-07-03T16:10:31;22.90;97.80
21023;DHT22;10669;51.076;3.714;2022-07-03T16:12:58;23.00;98.00
21023;DHT22;10669;51.076;3.714;2022-07-03T16:15:29;23.00;98.20
21023;DHT22;10669;51.076;3.714;2022-07-03T16:17:56;23.30;98.10
21023;DHT22;10669;51.076;3.714;2022-07-03T16:20:26;23.50;97.80
21023;DHT22;10669;51.076;3.714;2022-07-03T16:23:20;23.00;98.60
21023;DHT22;10669;51.076;3.714;2022-07-03T16:25:47;25.00;97.10
21023;DHT22;10669;51.076;3.714;2022-07-03T16:28:12;25.40;96.00
21023;DHT22;10669;51.076;3.714;2022-07-03T16:30:48;24.90;96.60
21023;DHT22;10669;51.076;3.714;2022-07-03T16:33:17;23.80;97.20
21023;DHT22;10669;51.076;3.714;2022-07-03T16:35:52;23.00;98.20
21023;DHT22;10669;51.076;3.714;2022-07-03T16:38:37;22.90;99.00
21023;DHT22;10669;51.076;3.714;2022-07-03T16:41:05;23.00;99.40
21023;DHT22;10669;51.076;3.714;2022-07-03T16:43:32;23.30;99.30
21023;DHT22;10669;51.076;3.714;2022-07-03T16:46:01;23.30;99.40
21023;DHT22;10669;51.076;3.714;2022-07-03T16:48:29;23.30;99.60
21023;DHT22;10669;51.076;3.714;2022-07-03T16:50:59;23.20;99.60
21023;DHT22;10669;51.076;3.714;2022-07-03T16:53:30;22.90;99.70
21023;DHT22;10669;51.076;3.714;2022-07-03T16:55:57;22.30;99.90
21023;DHT22;10669;51.076;3.714;2022-07-03T16:58:23;22.30;99.90
21023;DHT22;10669;51.076;3.714;2022-07-03T17:00:49;22.20;99.90
21023;DHT22;10669;51.076;3.714;2022-07-03T17:03:18;22.10;99.90
21023;DHT22;10669;51.076;3.714;2022-07-03T17:05:46;22.00;99.90
21023;DHT22;10669;51.076;3.714;2022-07-03T17:08:15;21.90;99.90
21023;DHT22;10669;51.076;3.714;2022-07-03T17:10:44;21.40;99.90
21023;DHT22;10669;51.076;3.714;2022-07-03T17:13:09;21.50;99.90
21023;DHT22;10669;51.076;3.714;2022-07-03T17:15:35;21.10;99.90